createdAt,value
2022-11-20T00:01:27.642Z,44.27
2022-11-20T00:06:38.896Z,41.23
2022-11-20T00:11:50.415Z,42.80
2022-11-20T00:14:17.019Z,42.20
2022-11-20T00:16:43.922Z,39.20
2022-11-20T00:19:10.550Z,44.40
2022-11-20T00:21:37.153Z,44.20
2022-11-20T00:24:03.829Z,45.97
2022-11-20T00:26:31.236Z,48.30
2022-11-20T00:28:58.701Z,45.37
2022-11-20T00:31:25.393Z,42.83
2022-11-20T00:33:51.906Z,46.90
2022-11-20T00:36:19.202Z,39.90
2022-11-20T00:38:45.771Z,38.93
2022-11-20T00:41:13.325Z,46.47
2022-11-20T00:43:39.924Z,41.03
2022-11-20T00:46:06.706Z,41.33
2022-11-20T00:48:33.389Z,42.33
2022-11-20T00:51:00.292Z,41.17
2022-11-20T00:53:26.925Z,40.37
2022-11-20T00:55:57.298Z,37.80
2022-11-20T00:58:24.091Z,43.83
2022-11-20T01:00:50.790Z,44.37
2022-11-20T01:03:21.549Z,38.60
2022-11-20T01:05:50.702Z,37.90
2022-11-20T01:08:17.198Z,36.37
2022-11-20T01:10:43.829Z,35.60
2022-11-20T01:13:28.827Z,35.73
2022-11-20T01:15:55.562Z,33.67
2022-11-20T01:18:22.321Z,33.40
2022-11-20T01:23:36.440Z,31.50
2022-11-20T01:26:03.946Z,29.90
2022-11-20T01:28:30.501Z,32.90
2022-11-20T01:30:57.354Z,33.13
2022-11-20T01:33:23.948Z,29.87
2022-11-20T01:35:50.564Z,32.47
2022-11-20T01:38:17.317Z,28.23
2022-11-20T01:40:43.929Z,31.20
2022-11-20T01:43:22.702Z,29.57
2022-11-20T01:46:08.228Z,32.10
2022-11-20T01:48:39.795Z,29.83
2022-11-20T01:51:07.461Z,31.00
2022-11-20T01:53:34.558Z,33.97
2022-11-20T01:56:01.865Z,33.33
2022-11-20T01:58:32.809Z,34.73
2022-11-20T02:03:44.117Z,35.87
2022-11-20T02:06:15.622Z,35.30
2022-11-20T02:08:42.197Z,36.37
2022-11-20T02:11:08.820Z,36.53
2022-11-20T02:13:44.488Z,33.17
2022-11-20T02:16:18.571Z,37.77
2022-11-20T02:18:45.077Z,34.50
2022-11-20T02:21:16.576Z,37.03
2022-11-20T02:23:55.032Z,36.33
2022-11-20T02:26:21.617Z,35.27
2022-11-20T02:28:48.173Z,39.43
2022-11-20T02:31:14.720Z,34.53
2022-11-20T02:33:41.262Z,34.57
2022-11-20T02:36:08.688Z,41.07
2022-11-20T02:38:35.297Z,37.83
2022-11-20T02:41:02.250Z,40.00
2022-11-20T02:43:28.796Z,36.77
2022-11-20T02:45:55.581Z,37.90
2022-11-20T02:48:25.021Z,36.97
2022-11-20T02:50:51.902Z,40.63
2022-11-20T02:53:18.508Z,39.50
2022-11-20T02:55:45.069Z,40.10
2022-11-20T02:58:11.625Z,39.97
2022-11-20T03:00:38.206Z,38.63
2022-11-20T03:03:04.685Z,37.57
2022-11-20T03:05:31.189Z,40.60
2022-11-20T03:07:57.766Z,38.93
2022-11-20T03:10:24.427Z,39.80
2022-11-20T03:12:56.810Z,39.07
2022-11-20T03:15:24.020Z,38.00
2022-11-20T03:17:50.499Z,39.30
2022-11-20T03:20:17.090Z,33.60
2022-11-20T03:25:27.675Z,37.67
2022-11-20T03:27:54.634Z,32.70
2022-11-20T03:30:21.155Z,36.57
2022-11-20T03:32:48.198Z,34.00
2022-11-20T03:35:14.917Z,37.37
2022-11-20T03:37:41.474Z,36.53
2022-11-20T03:40:08.271Z,34.07
2022-11-20T03:42:47.132Z,31.83
2022-11-20T03:45:17.329Z,31.83
2022-11-20T03:47:44.155Z,32.90
2022-11-20T03:50:11.019Z,33.27
2022-11-20T03:52:37.649Z,33.20
2022-11-20T03:55:04.326Z,31.13
2022-11-20T03:57:30.948Z,34.73
2022-11-20T03:59:57.471Z,35.10
2022-11-20T04:02:24.069Z,32.37
2022-11-20T04:04:50.819Z,36.07
2022-11-20T04:07:17.545Z,32.93
2022-11-20T04:09:44.424Z,33.40
2022-11-20T04:12:10.970Z,36.03
2022-11-20T04:14:37.925Z,32.43
2022-11-20T04:17:04.689Z,32.03
2022-11-20T04:19:31.193Z,32.67
2022-11-20T04:21:57.797Z,32.33
2022-11-20T04:24:24.276Z,32.60
2022-11-20T04:26:50.896Z,37.57
2022-11-20T04:29:17.448Z,34.53
2022-11-20T04:31:44.000Z,38.27
2022-11-20T04:34:11.726Z,33.43
2022-11-20T04:36:38.363Z,37.43
2022-11-20T04:39:05.647Z,35.30
2022-11-20T04:44:17.031Z,34.67
2022-11-20T04:49:27.840Z,39.07
2022-11-20T04:54:38.642Z,40.77
2022-11-20T04:57:06.310Z,35.13
2022-11-20T04:59:34.525Z,36.37
2022-11-20T05:02:01.216Z,39.43
2022-11-20T05:04:27.783Z,34.43
2022-11-20T05:06:54.273Z,39.83
2022-11-20T05:09:21.096Z,35.43
2022-11-20T05:11:51.378Z,36.70
2022-11-20T05:14:18.370Z,38.10
2022-11-20T05:16:44.958Z,37.63
2022-11-20T05:19:11.628Z,38.70
2022-11-20T05:21:38.189Z,36.77
2022-11-20T05:24:05.645Z,40.17
2022-11-20T05:26:32.181Z,36.60
2022-11-20T05:28:58.792Z,38.53
2022-11-20T05:31:28.133Z,35.03
2022-11-20T05:33:55.166Z,37.50
2022-11-20T05:36:21.733Z,36.63
2022-11-20T05:38:50.868Z,29.17
2022-11-20T05:41:18.879Z,33.30
2022-11-20T05:43:45.901Z,32.77
2022-11-20T05:46:13.113Z,28.90
2022-11-20T05:48:40.158Z,36.47
2022-11-20T05:51:07.291Z,35.17
2022-11-20T05:53:34.524Z,31.90
2022-11-20T05:56:01.668Z,36.67
2022-11-20T05:58:28.471Z,34.67
2022-11-20T06:00:55.403Z,35.23
2022-11-20T06:03:22.054Z,36.27
2022-11-20T06:05:48.534Z,33.83
2022-11-20T06:08:15.047Z,39.57
2022-11-20T06:10:41.682Z,34.40
2022-11-20T06:13:08.267Z,33.90
2022-11-20T06:15:34.970Z,33.53
2022-11-20T06:18:01.715Z,34.40
2022-11-20T06:20:28.367Z,35.80
2022-11-20T06:22:55.300Z,31.93
2022-11-20T06:25:22.084Z,35.00
2022-11-20T06:27:48.719Z,33.50
2022-11-20T06:30:15.633Z,33.13
2022-11-20T06:32:42.263Z,31.77
2022-11-20T06:35:10.946Z,31.33
2022-11-20T06:37:37.696Z,30.83
2022-11-20T06:40:05.055Z,32.27
2022-11-20T06:42:31.879Z,31.40
2022-11-20T06:44:58.797Z,31.10
2022-11-20T06:47:25.849Z,31.17
2022-11-20T06:49:52.899Z,30.37
2022-11-20T06:52:19.577Z,26.53
2022-11-20T06:54:46.210Z,28.57
2022-11-20T06:57:12.736Z,29.20
2022-11-20T06:59:40.561Z,28.63
2022-11-20T07:02:09.953Z,34.17
2022-11-20T07:04:36.758Z,30.80
2022-11-20T07:07:03.420Z,30.40
2022-11-20T07:09:30.375Z,26.17
2022-11-20T07:11:57.229Z,29.57
2022-11-20T07:14:23.878Z,28.23
2022-11-20T07:16:50.554Z,29.37
2022-11-20T07:19:17.103Z,34.63
2022-11-20T07:24:27.673Z,30.50
2022-11-20T07:26:54.332Z,32.30
2022-11-20T07:29:21.214Z,36.73
2022-11-20T07:31:48.046Z,48.37
2022-11-20T07:34:14.750Z,35.40
2022-11-20T07:36:41.388Z,33.87
2022-11-20T07:39:07.934Z,35.53
2022-11-20T07:44:19.989Z,36.83
2022-11-20T07:46:47.661Z,34.80
2022-11-20T07:49:16.196Z,37.37
2022-11-20T07:51:43.107Z,31.93
2022-11-20T07:54:09.974Z,31.70
2022-11-20T07:56:36.691Z,28.67
2022-11-20T07:59:04.344Z,34.93
2022-11-20T08:01:31.350Z,32.30
2022-11-20T08:03:58.039Z,32.93
2022-11-20T08:06:25.766Z,33.43
2022-11-20T08:08:52.476Z,36.33
2022-11-20T08:11:37.411Z,39.77
2022-11-20T08:14:13.500Z,41.63
2022-11-20T08:16:47.059Z,39.50
2022-11-20T08:21:59.614Z,40.90
2022-11-20T08:24:27.505Z,36.43
2022-11-20T08:26:54.098Z,39.17
2022-11-20T08:29:20.997Z,40.23
2022-11-20T08:31:47.851Z,43.60
2022-11-20T08:34:18.779Z,41.30
2022-11-20T08:36:45.857Z,36.93
2022-11-20T08:39:12.684Z,46.50
2022-11-20T08:41:39.232Z,44.33
2022-11-20T08:44:07.688Z,39.80
2022-11-20T08:46:35.165Z,41.13
2022-11-20T08:49:01.810Z,40.90
2022-11-20T08:51:28.363Z,38.27
2022-11-20T08:53:54.896Z,40.40
2022-11-20T08:56:21.599Z,40.73
2022-11-20T08:59:16.499Z,37.57
2022-11-20T09:01:35.095Z,43.00
2022-11-20T09:04:02.194Z,41.90
2022-11-20T09:06:28.911Z,41.20
2022-11-20T09:08:55.583Z,42.47
2022-11-20T09:11:22.442Z,43.83
2022-11-20T09:13:49.077Z,42.57
2022-11-20T09:16:15.817Z,45.87
2022-11-20T09:18:42.456Z,41.40
2022-11-20T09:21:13.498Z,46.90
2022-11-20T09:23:40.583Z,47.57
2022-11-20T09:26:07.920Z,44.93
2022-11-20T09:28:34.524Z,51.27
2022-11-20T09:31:01.243Z,57.47
2022-11-20T09:33:28.007Z,55.13
2022-11-20T09:35:54.768Z,53.37
2022-11-20T09:38:21.433Z,42.13
2022-11-20T09:40:50.447Z,40.43
2022-11-20T09:43:20.949Z,47.60
2022-11-20T09:46:06.693Z,49.50
2022-11-20T09:48:43.742Z,45.80
2022-11-20T09:51:13.511Z,49.67
2022-11-20T09:56:40.721Z,44.23
2022-11-20T09:59:07.929Z,41.87
2022-11-20T10:01:35.649Z,46.53
2022-11-20T10:07:31.710Z,41.77
2022-11-20T10:09:58.921Z,46.43
2022-11-20T10:12:32.503Z,47.60
2022-11-20T10:15:06.023Z,43.37
2022-11-20T10:17:50.156Z,49.60
2022-11-20T10:20:35.483Z,41.80
2022-11-20T10:23:03.231Z,54.87
2022-11-20T10:25:40.627Z,54.80
2022-11-20T10:28:07.478Z,52.83
2022-11-20T10:30:36.219Z,50.83
2022-11-20T10:33:07.988Z,58.57
2022-11-20T10:35:50.145Z,49.37
2022-11-20T10:38:22.190Z,51.80
2022-11-20T10:40:53.297Z,53.23
2022-11-20T10:46:12.095Z,55.27
2022-11-20T10:48:45.810Z,52.30
2022-11-20T10:51:18.527Z,51.93
2022-11-20T10:53:47.659Z,53.47
2022-11-20T10:56:22.018Z,49.53
2022-11-20T10:59:02.425Z,43.77
2022-11-20T11:01:29.613Z,44.87
2022-11-20T11:03:56.756Z,48.17
2022-11-20T11:06:26.476Z,45.50
2022-11-20T11:08:54.887Z,45.53
2022-11-20T11:11:22.910Z,40.83
2022-11-20T11:13:49.785Z,41.10
2022-11-20T11:16:24.087Z,53.67
2022-11-20T11:18:50.952Z,45.97
2022-11-20T11:21:27.056Z,48.63
2022-11-20T11:24:19.854Z,46.70
2022-11-20T11:27:04.036Z,43.97
2022-11-20T11:29:34.170Z,47.20
2022-11-20T11:32:07.677Z,53.80
2022-11-20T11:34:34.749Z,48.53
2022-11-20T11:37:01.811Z,43.03
2022-11-20T11:39:28.989Z,45.90
2022-11-20T11:41:55.797Z,47.87
2022-11-20T11:44:41.492Z,49.03
2022-11-20T11:47:12.746Z,45.37
2022-11-20T11:49:39.464Z,48.83
2022-11-20T11:52:18.627Z,47.77
2022-11-20T11:54:49.609Z,49.87
2022-11-20T11:57:35.677Z,47.63
2022-11-20T12:00:07.162Z,47.87
2022-11-20T12:02:49.457Z,49.13
2022-11-20T12:05:26.596Z,49.83
2022-11-20T12:08:22.723Z,48.63
2022-11-20T12:11:01.820Z,54.63
2022-11-20T12:14:07.409Z,50.23
2022-11-20T12:16:36.460Z,43.87
2022-11-20T12:19:02.999Z,50.37
2022-11-20T12:21:33.843Z,46.87
2022-11-20T12:24:01.439Z,44.97
2022-11-20T12:26:46.945Z,43.77
2022-11-20T12:29:16.856Z,53.47
2022-11-20T12:31:43.503Z,50.73
2022-11-20T12:34:14.712Z,48.73
2022-11-20T12:36:42.569Z,54.70
2022-11-20T12:42:34.971Z,49.90
2022-11-20T12:45:10.508Z,48.87
2022-11-20T12:47:56.400Z,49.07
2022-11-20T12:50:23.095Z,47.93
2022-11-20T12:52:53.421Z,50.07
2022-11-20T12:55:39.114Z,52.20
2022-11-20T12:58:11.917Z,51.30
2022-11-20T13:00:38.812Z,47.27
2022-11-20T13:03:16.390Z,46.37
2022-11-20T13:06:02.500Z,48.27
2022-11-20T13:08:41.143Z,38.20
2022-11-20T13:14:12.816Z,51.57
2022-11-20T13:16:42.883Z,47.27
2022-11-20T13:19:10.996Z,45.07
2022-11-20T13:21:41.545Z,47.40
2022-11-20T13:27:11.454Z,45.97
2022-11-20T13:29:38.763Z,45.60
2022-11-20T13:32:14.881Z,46.17
2022-11-20T13:37:38.644Z,44.07
2022-11-20T13:40:12.346Z,44.77
2022-11-20T13:42:41.550Z,44.07
2022-11-20T13:45:25.208Z,45.53
2022-11-20T13:47:54.296Z,46.40
2022-11-20T13:50:21.508Z,48.57
2022-11-20T13:53:03.809Z,46.13
2022-11-20T13:55:36.809Z,41.57
2022-11-20T13:58:33.053Z,40.53
2022-11-20T14:01:02.189Z,46.27
2022-11-20T14:03:59.031Z,45.23
2022-11-20T14:06:25.266Z,47.93
2022-11-20T14:08:52.058Z,41.90
2022-11-20T14:11:21.245Z,43.13
2022-11-20T14:13:57.234Z,45.60
2022-11-20T14:16:24.167Z,50.33
2022-11-20T14:18:51.060Z,44.17
2022-11-20T14:21:27.558Z,45.73
2022-11-20T14:24:07.017Z,50.17
2022-11-20T14:26:33.798Z,46.07
2022-11-20T14:29:00.554Z,47.47
2022-11-20T14:31:27.773Z,49.23
2022-11-20T14:33:55.050Z,50.43
2022-11-20T14:36:22.859Z,45.40
2022-11-20T14:38:50.093Z,46.40
2022-11-20T14:41:25.890Z,50.27
2022-11-20T14:43:55.208Z,49.17
2022-11-20T14:46:21.944Z,53.40
2022-11-20T14:48:49.390Z,51.40
2022-11-20T14:51:28.744Z,49.77
2022-11-20T14:53:55.443Z,48.73
2022-11-20T14:56:24.701Z,46.27
2022-11-20T14:59:00.615Z,50.10
2022-11-20T15:01:28.902Z,54.30
2022-11-20T15:04:00.578Z,54.67
2022-11-20T15:06:27.780Z,59.33
2022-11-20T15:08:54.919Z,57.93
2022-11-20T15:11:50.718Z,57.37
2022-11-20T15:14:18.109Z,55.17
2022-11-20T15:16:50.319Z,54.30
2022-11-20T15:19:18.550Z,50.43
2022-11-20T15:21:45.503Z,59.23
2022-11-20T15:24:12.157Z,53.87
2022-11-20T15:26:45.360Z,52.83
2022-11-20T15:29:19.696Z,56.83
2022-11-20T15:31:49.051Z,57.37
2022-11-20T15:34:19.095Z,55.87
2022-11-20T15:36:45.817Z,58.53
2022-11-20T15:39:12.665Z,52.43
2022-11-20T15:41:41.420Z,56.97
2022-11-20T15:44:08.055Z,55.03
2022-11-20T15:46:39.540Z,54.27
2022-11-20T15:49:08.460Z,53.10
2022-11-20T15:51:37.603Z,53.53
2022-11-20T15:54:19.712Z,61.73
2022-11-20T15:56:47.140Z,56.67
2022-11-20T15:59:15.657Z,50.73
2022-11-20T16:01:42.651Z,53.33
2022-11-20T16:04:12.784Z,53.90
2022-11-20T16:06:42.697Z,56.33
2022-11-20T16:11:56.888Z,55.80
2022-11-20T16:17:43.488Z,54.13
2022-11-20T16:20:12.197Z,53.40
2022-11-20T16:22:38.758Z,61.17
2022-11-20T16:25:06.055Z,61.43
2022-11-20T16:27:32.650Z,73.70
2022-11-20T16:30:01.398Z,74.13
2022-11-20T16:32:28.066Z,63.40
2022-11-20T16:34:55.288Z,73.03
2022-11-20T16:37:24.431Z,60.53
2022-11-20T16:39:51.171Z,63.07
2022-11-20T16:42:18.213Z,61.33
2022-11-20T16:44:46.534Z,56.60
2022-11-20T16:47:13.220Z,60.60
2022-11-20T16:52:25.629Z,73.13
2022-11-20T16:54:52.390Z,68.27
2022-11-20T16:57:19.136Z,69.37
2022-11-20T16:59:46.444Z,72.97
2022-11-20T17:02:13.800Z,79.83
2022-11-20T17:04:41.675Z,87.20
2022-11-20T17:07:08.778Z,108.50
2022-11-20T17:09:36.563Z,121.70
2022-11-20T17:12:03.650Z,115.57
2022-11-20T17:14:34.217Z,119.90
2022-11-20T17:17:01.044Z,93.03
2022-11-20T17:19:30.885Z,92.30
2022-11-20T17:21:58.794Z,83.63
2022-11-20T17:24:29.082Z,76.00
2022-11-20T17:27:00.466Z,71.70
2022-11-20T17:29:27.743Z,68.90
2022-11-20T17:31:55.004Z,65.77
2022-11-20T17:34:22.261Z,67.50
2022-11-20T17:36:49.181Z,66.43
2022-11-20T17:39:16.675Z,72.00
2022-11-20T17:41:43.471Z,66.53
2022-11-20T17:44:11.237Z,73.00
2022-11-20T17:46:39.044Z,65.27
2022-11-20T17:49:06.269Z,74.60
2022-11-20T17:51:35.269Z,76.57
2022-11-20T17:54:03.417Z,73.43
2022-11-20T17:56:53.309Z,68.77
2022-11-20T17:59:21.900Z,69.33
2022-11-20T18:01:49.058Z,72.27
2022-11-20T18:04:16.932Z,72.60
2022-11-20T18:06:48.077Z,68.23
2022-11-20T18:09:15.394Z,67.37
2022-11-20T18:11:42.294Z,68.27
2022-11-20T18:14:33.057Z,68.17
2022-11-20T18:17:06.941Z,74.33
2022-11-20T18:19:41.157Z,72.80
2022-11-20T18:22:12.866Z,80.93
2022-11-20T18:24:39.754Z,79.63
2022-11-20T18:27:07.431Z,85.33
2022-11-20T18:29:34.788Z,76.13
2022-11-20T18:32:01.745Z,78.07
2022-11-20T18:34:28.976Z,78.77
2022-11-20T18:36:55.880Z,75.60
2022-11-20T18:39:23.779Z,81.20
2022-11-20T18:42:10.060Z,76.30
2022-11-20T18:44:52.867Z,77.03
2022-11-20T18:47:25.808Z,71.27
2022-11-20T18:49:53.034Z,69.57
2022-11-20T18:52:20.727Z,64.47
2022-11-20T18:54:47.919Z,68.73
2022-11-20T18:57:21.579Z,73.70
2022-11-20T18:59:48.777Z,77.97
2022-11-20T19:02:16.139Z,78.30
2022-11-20T19:04:44.718Z,70.30
2022-11-20T19:07:12.336Z,83.90
2022-11-20T19:09:40.810Z,80.53
2022-11-20T19:12:08.808Z,75.90
2022-11-20T19:14:36.092Z,80.73
2022-11-20T19:17:03.616Z,82.37
2022-11-20T19:19:35.664Z,75.33
2022-11-20T19:22:02.450Z,74.07
2022-11-20T19:24:29.128Z,74.60
2022-11-20T19:26:56.353Z,78.03
2022-11-20T19:29:24.392Z,81.87
2022-11-20T19:31:52.728Z,76.97
2022-11-20T19:34:21.175Z,77.93
2022-11-20T19:36:48.558Z,73.03
2022-11-20T19:39:15.468Z,77.57
2022-11-20T19:44:27.773Z,79.77
2022-11-20T19:46:57.664Z,81.87
2022-11-20T19:49:26.605Z,81.10
2022-11-20T19:51:56.484Z,73.23
2022-11-20T19:54:31.355Z,77.07
2022-11-20T19:57:00.015Z,83.07
2022-11-20T19:59:27.257Z,82.27
2022-11-20T20:04:42.320Z,77.27
2022-11-20T20:07:11.377Z,79.70
2022-11-20T20:09:39.052Z,82.37
2022-11-20T20:12:05.835Z,88.43
2022-11-20T20:17:16.524Z,86.57
2022-11-20T20:22:26.983Z,90.00
2022-11-20T20:27:37.839Z,87.83
2022-11-20T20:32:55.848Z,83.03
2022-11-20T20:35:25.065Z,80.57
2022-11-20T20:37:51.674Z,79.93
2022-11-20T20:40:19.342Z,71.50
2022-11-20T20:45:31.403Z,71.53
2022-11-20T20:47:58.103Z,68.30
2022-11-20T20:50:25.161Z,70.07
2022-11-20T20:52:52.089Z,72.07
2022-11-20T20:55:20.224Z,70.80
2022-11-20T20:57:47.430Z,69.03
2022-11-20T21:00:14.354Z,74.97
2022-11-20T21:02:40.948Z,72.10
2022-11-20T21:05:07.763Z,69.30
2022-11-20T21:07:34.402Z,59.47
2022-11-20T21:10:01.195Z,60.60
2022-11-20T21:12:30.677Z,55.20
2022-11-20T21:14:57.350Z,54.20
2022-11-20T21:17:25.248Z,56.27
2022-11-20T21:19:52.617Z,53.87
2022-11-20T21:22:19.319Z,49.10
2022-11-20T21:24:46.303Z,52.87
2022-11-20T21:27:14.725Z,55.53
2022-11-20T21:29:42.169Z,54.33
2022-11-20T21:32:08.973Z,50.00
2022-11-20T21:34:35.659Z,48.10
2022-11-20T21:37:03.547Z,40.27
2022-11-20T21:39:31.264Z,43.07
2022-11-20T21:41:57.934Z,43.00
2022-11-20T21:44:32.428Z,46.07
2022-11-20T21:49:45.983Z,41.40
2022-11-20T21:52:12.629Z,43.50
2022-11-20T21:54:39.277Z,42.40
2022-11-20T21:57:05.902Z,42.43
2022-11-20T21:59:32.856Z,48.47
2022-11-20T22:01:59.621Z,45.23
2022-11-20T22:04:26.481Z,45.13
2022-11-20T22:09:38.219Z,37.20
2022-11-20T22:12:06.554Z,44.07
2022-11-20T22:14:34.659Z,43.87
2022-11-20T22:17:01.301Z,42.40
2022-11-20T22:19:30.131Z,43.70
2022-11-20T22:21:56.740Z,46.03
2022-11-20T22:24:25.339Z,42.93
2022-11-20T22:26:52.383Z,42.47
2022-11-20T22:29:19.687Z,44.77
2022-11-20T22:31:48.472Z,37.87
2022-11-20T22:34:15.477Z,39.87
2022-11-20T22:36:42.371Z,36.47
2022-11-20T22:39:09.495Z,39.83
2022-11-20T22:41:36.495Z,39.07
2022-11-20T22:44:04.468Z,38.97
2022-11-20T22:46:31.796Z,42.50
2022-11-20T22:48:59.363Z,44.07
2022-11-20T22:51:26.992Z,39.70
2022-11-20T22:53:54.735Z,32.37
2022-11-20T22:56:21.922Z,41.43
2022-11-20T22:58:49.455Z,43.87
2022-11-20T23:01:16.125Z,40.10
2022-11-20T23:03:43.994Z,44.27
2022-11-20T23:06:10.813Z,41.83
2022-11-20T23:08:38.012Z,42.63
2022-11-20T23:11:05.655Z,41.23
2022-11-20T23:13:33.348Z,43.67
2022-11-20T23:16:04.371Z,41.50
2022-11-20T23:18:31.044Z,44.57
2022-11-20T23:20:57.616Z,41.57
2022-11-20T23:23:24.344Z,42.97
2022-11-20T23:25:51.978Z,40.17
2022-11-20T23:28:19.671Z,43.37
2022-11-20T23:30:47.474Z,39.17
2022-11-20T23:33:15.035Z,44.00
2022-11-20T23:35:41.600Z,39.27
2022-11-20T23:38:08.274Z,43.20
2022-11-20T23:40:38.740Z,43.53
2022-11-20T23:43:17.939Z,36.57
2022-11-20T23:45:45.089Z,36.33
2022-11-20T23:48:12.881Z,37.93
2022-11-20T23:50:39.526Z,32.83
2022-11-20T23:53:07.404Z,41.87
2022-11-20T23:55:34.219Z,34.07
2022-11-20T23:58:00.907Z,37.37
